Time;durP1;ratioP1;P1;durP2;ratioP2;P2;SDS_P1;SDS_P2;PMS_P1;PMS_P2;Temp;Humidity;BMP_temperature;BMP_pressure;BME280_temperature;BME280_humidity;BME280_pressure;Samples;Min_cycle;Max_cycle;Signal;HPM_P1;HPM_P2
2024/01/24 00:17:12;;;;;;;12.65;8.20;;;;;;;20.38;47.46;101687.94;41405117;28;20062;-73
2024/01/24 00:37:13;;;;;;;12.00;7.18;;;;;;;20.31;47.24;101690.91;41399287;28;20042;-74
2024/01/24 00:57:14;;;;;;;11.70;7.47;;;;;;;20.27;47.21;101699.88;41407029;28;20187;-75
2024/01/24 01:17:15;;;;;;;9.57;6.95;;;;;;;20.27;47.48;101667.47;41362486;28;20063;-73
2024/01/24 01:37:15;;;;;;;9.85;6.85;;;;;;;20.25;47.52;101643.00;41397732;28;20557;-73
2024/01/24 01:57:16;;;;;;;11.93;7.22;;;;;;;20.11;47.41;101604.31;41415694;28;20050;-73
2024/01/24 02:17:16;;;;;;;10.55;7.63;;;;;;;20.04;47.49;101585.38;41402156;28;20056;-75
2024/01/24 02:37:19;;;;;;;10.43;7.55;;;;;;;19.99;47.52;101562.00;41384405;28;20486;-75
2024/01/24 02:57:20;;;;;;;11.02;7.28;;;;;;;20.00;47.59;101570.72;41367924;28;20440;-74
2024/01/24 03:17:20;;;;;;;11.40;7.32;;;;;;;20.04;47.25;101511.75;41288431;28;20050;-75
2024/01/24 03:37:21;;;;;;;8.52;6.55;;;;;;;20.01;47.08;101459.34;41377010;28;20065;-75
2024/01/24 03:57:21;;;;;;;8.20;6.13;;;;;;;20.09;46.88;101478.19;41376440;28;20037;-74
2024/01/24 04:17:21;;;;;;;9.80;6.03;;;;;;;20.06;47.00;101478.34;41368108;28;20058;-74
2024/01/24 04:37:22;;;;;;;8.15;6.28;;;;;;;20.05;47.25;101478.44;41367485;28;20116;-74
2024/01/24 04:57:22;;;;;;;8.45;5.80;;;;;;;20.05;47.27;101455.63;41376541;28;20072;-75
2024/01/24 05:17:23;;;;;;;9.60;5.38;;;;;;;20.39;46.15;101432.66;41350532;28;20542;-73
2024/01/24 05:37:23;;;;;;;10.07;5.45;;;;;;;21.01;46.58;101426.47;41330131;28;20045;-75
2024/01/24 05:57:24;;;;;;;10.88;5.38;;;;;;;21.05;45.52;101387.63;41303788;28;20124;-76
2024/01/24 06:17:24;;;;;;;14.52;6.25;;;;;;;20.63;45.14;101390.09;41396803;28;20144;-75
2024/01/24 06:37:25;;;;;;;10.95;4.97;;;;;;;21.24;43.06;101361.03;41345409;28;20088;-71
2024/01/24 06:57:25;;;;;;;14.48;4.55;;;;;;;21.19;42.36;101326.19;41404333;28;20383;-75
2024/01/24 07:17:25;;;;;;;9.70;4.10;;;;;;;21.32;42.57;101292.03;41437630;28;20394;-76
2024/01/24 07:37:26;;;;;;;6.88;3.80;;;;;;;21.42;43.06;101269.41;41413542;28;20077;-73
2024/01/24 07:57:26;;;;;;;5.43;3.50;;;;;;;21.40;43.34;101260.78;41399052;28;20042;-72
2024/01/24 08:17:26;;;;;;;6.55;3.90;;;;;;;21.50;43.05;101261.03;41304873;28;20061;-74
2024/01/24 08:37:27;;;;;;;7.28;4.10;;;;;;;21.39;42.86;101240.66;41211078;28;20138;-70
2024/01/24 08:57:27;;;;;;;9.98;3.70;;;;;;;21.41;43.79;101218.53;41207561;28;20115;-71
2024/01/24 09:17:28;;;;;;;6.13;3.53;;;;;;;21.28;43.42;101170.22;41361904;28;20048;-69
2024/01/24 09:37:28;;;;;;;5.45;3.42;;;;;;;21.25;42.90;101133.53;41329461;28;20046;-71
2024/01/24 09:57:29;;;;;;;4.63;3.45;;;;;;;21.27;42.96;101103.50;41408297;28;20042;-71
2024/01/24 10:17:30;;;;;;;5.95;3.40;;;;;;;21.28;42.54;101028.81;41390986;28;20141;-72
2024/01/24 10:37:32;;;;;;;5.65;3.20;;;;;;;21.27;42.27;100981.50;41385197;28;20046;-70
2024/01/24 10:57:34;;;;;;;3.88;2.90;;;;;;;21.19;42.27;100932.00;41377045;28;20045;-69
2024/01/24 11:17:35;;;;;;;4.18;2.85;;;;;;;21.13;42.37;100850.78;41381828;28;20120;-70
2024/01/24 11:37:36;;;;;;;3.22;2.65;;;;;;;21.19;42.19;100795.06;41395283;28;20042;-71
2024/01/24 11:57:37;;;;;;;4.40;3.05;;;;;;;21.20;41.74;100814.31;41376335;28;20034;-70
2024/01/24 12:17:39;;;;;;;5.68;3.10;;;;;;;21.23;41.30;100820.22;41356194;28;20112;-69
2024/01/24 12:37:42;;;;;;;3.70;3.08;;;;;;;21.39;41.47;100806.78;41366918;28;20041;-71
2024/01/24 12:57:50;;;;;;;4.28;3.03;;;;;;;21.17;42.13;100727.66;41367326;28;20050;-70
2024/01/24 13:17:50;;;;;;;4.05;2.78;;;;;;;21.21;41.73;100744.91;41361924;28;20587;-71
2024/01/24 13:37:52;;;;;;;3.83;2.95;;;;;;;21.17;41.62;100694.25;41384858;28;20213;-69
2024/01/24 13:57:54;;;;;;;6.38;3.17;;;;;;;21.18;41.80;100664.34;41366268;28;20042;-73
2024/01/24 14:17:54;;;;;;;3.65;2.78;;;;;;;21.35;41.31;100649.94;41383332;28;20045;-72
2024/01/24 14:37:55;;;;;;;5.35;3.30;;;;;;;21.46;41.14;100624.56;41379504;28;20041;-70
2024/01/24 14:57:55;;;;;;;4.13;2.78;;;;;;;21.35;41.32;100591.13;41398877;28;20046;-70
2024/01/24 15:17:56;;;;;;;6.05;3.03;;;;;;;21.25;41.37;100554.94;41370996;28;20077;-69
2024/01/24 15:37:56;;;;;;;5.20;3.00;;;;;;;21.27;41.44;100574.09;41352098;28;20054;-72
2024/01/24 15:57:57;;;;;;;7.20;3.13;;;;;;;21.22;41.47;100567.50;41356669;28;20552;-71
2024/01/24 16:17:57;;;;;;;3.33;2.83;;;;;;;20.97;41.48;100555.31;41363521;28;20069;-72
2024/01/24 16:37:58;;;;;;;6.28;3.80;;;;;;;20.75;41.74;100576.16;41361239;28;20057;-68
2024/01/24 16:57:59;;;;;;;4.63;3.60;;;;;;;20.94;42.30;100551.94;41382015;28;20046;-67
2024/01/24 17:18:03;;;;;;;8.35;3.15;;;;;;;20.87;43.62;100582.34;41383218;28;20042;-69
2024/01/24 17:38:04;;;;;;;42.38;20.15;;;;;;;20.95;45.20;100593.13;41397653;28;20038;-70
2024/01/24 17:58:06;;;;;;;29.35;17.17;;;;;;;21.00;46.29;100602.50;41366826;28;20049;-70
2024/01/24 18:18:07;;;;;;;23.80;14.10;;;;;;;21.06;47.11;100607.31;41409699;28;20076;-69
2024/01/24 18:38:10;;;;;;;84.13;38.03;;;;;;;21.09;48.21;100607.06;41395069;28;20045;-70
2024/01/24 18:58:11;;;;;;;95.53;37.03;;;;;;;21.03;47.17;100615.41;41447618;28;20417;-69
2024/01/24 19:18:13;;;;;;;73.18;31.60;;;;;;;21.11;47.00;100555.13;41434654;28;20042;-71
2024/01/24 19:38:15;;;;;;;59.88;26.85;;;;;;;21.05;46.69;100585.38;41410974;28;20099;-69
2024/01/24 19:58:16;;;;;;;53.95;23.15;;;;;;;21.03;46.77;100645.22;41397779;28;20038;-70
2024/01/24 20:18:18;;;;;;;43.03;19.40;;;;;;;21.03;46.56;100655.75;41391956;28;20065;-69
2024/01/24 20:38:19;;;;;;;32.72;15.60;;;;;;;20.55;46.40;100648.59;41299047;28;20041;-70
2024/01/24 20:58:28;;;;;;;28.20;14.50;;;;;;;20.67;46.86;100625.84;41362781;28;20061;-71
2024/01/24 21:18:29;;;;;;;25.60;12.18;;;;;;;20.66;47.32;100639.09;41393041;28;20062;-68
2024/01/24 21:38:31;;;;;;;24.85;12.02;;;;;;;20.64;47.42;100652.34;41399221;28;20100;-68
2024/01/24 21:58:31;;;;;;;19.92;10.70;;;;;;;20.56;47.73;100659.97;41417331;28;20056;-68
2024/01/24 22:18:31;;;;;;;16.50;9.18;;;;;;;20.48;48.20;100655.22;41407813;28;20767;-69
2024/01/24 22:38:32;;;;;;;16.05;8.68;;;;;;;20.47;48.87;100653.56;41410586;28;20038;-69
2024/01/24 22:58:33;;;;;;;14.63;8.02;;;;;;;20.43;49.20;100647.69;41415893;28;20100;-70
2024/01/24 23:18:36;;;;;;;11.15;7.20;;;;;;;20.42;48.82;100629.34;41262200;28;20130;-70
2024/01/24 23:38:36;;;;;;;11.52;6.82;;;;;;;20.42;49.12;100624.09;41280143;28;20046;-70
2024/01/24 23:58:37;;;;;;;11.00;6.40;;;;;;;20.39;48.80;100606.75;41281771;28;20505;-69
